Neosho Rapids, Kansas
Current Conditions -  °F | °C
As of 10:53 AM on Sunday 21 Dec 2014 (Local Time) from KEMP Reporting Station
Overcast Overcast  
Wind Chill: 33°   Ceiling: 700
Heat Index: 40°   Visibility: 7mi
Dew Point: 39°   Wind: 12mph
Humidity: 97%   Direction: 170°S
Pressure: 29.95"   Gusts: NA
Location:  38.37°N, 95.99°W
Report Text: KEMP 211653Z AUTO 17010KT 7SM OVC007 04/04 A2995 RMK AO2 SLP153 T00440039
Loading
Personal Weather Stations






























Interactive Weather Map New forecast layout! Learn more

10-Day Weather Forecast

Advertisements
Track Severe Weather on mobile